LNG Dream — C6VO5 — position and weather

sailwx.info

Track history (hours):
 
Tides and Currents Weather Stations Pressure Air Temp Water Temp Dewpoint Dewpoint Depression Visibility Wind Speed Wind Dir Waves Ship Positions

LNG Dream

Last reported at 2014-Nov-26 05:33 UTC. Time now 2014-Dec-18 23:09 UTC.
Position N 33°59' E 134°54'.
Warning: this ship's position is 22 days out of date.

Length 289.6 m; beam 49 m.

Type: Ship (hazmat cat A). MMSI: 309065000.

Date/timePositionNaut miles runAvg speedWind from/ knotsBaromVisibWave heightAir tempDewpointWater temp
2014-Nov-26 05:33N 33°59' E 134°54'1313.3
2014-Nov-26 04:33N 34°12' E 134°57'1313.3
2014-Nov-26 03:33N 34°25' E 135°02'1110.7
2014-Nov-26 02:33N 34°35' E 135°04'1111.4
2014-Nov-26 01:33N 34°34' E 134°51'1110.9
2014-Nov-26 00:33N 34°42' E 134°41'4 0.2
2014-Nov-25 03:29N 34°45' E 134°41'14 7.1
2014-Nov-25 01:34N 34°35' E 134°51'1312.9
2014-Nov-25 00:33N 34°35' E 135°07'5 5.4
2014-Nov-24 23:33N 34°30' E 135°08'1413.9
2014-Nov-24 22:33N 34°18' E 134°60'1111.0
2014-Nov-24 21:33N 34°07' E 134°60'6 6.5
2014-Nov-24 20:33N 34°01' E 134°59'6 5.9
2014-Nov-24 19:33N 33°55' E 134°59'  
Track history (hours):
 
Tides and Currents Weather Stations Pressure Air Temp Water Temp Dewpoint Dewpoint Depression Visibility Wind Speed Wind Dir Waves Ship Positions

LNG Dream

Last reported at 2014-Nov-26 05:33 UTC. Time now 2014-Dec-18 23:09 UTC.
Position N 33°59' E 134°54'.
Warning: this ship's position is 22 days out of date.

Length 289.6 m; beam 49 m.

Type: Ship (hazmat cat A). MMSI: 309065000.

Date/timePositionNaut miles runAvg speedWind from/ knotsBaromVisibWave heightAir tempDewpointWater temp
2014-Nov-26 05:33N 33°59' E 134°54'1313.3
2014-Nov-26 04:33N 34°12' E 134°57'1313.3
2014-Nov-26 03:33N 34°25' E 135°02'1110.7
2014-Nov-26 02:33N 34°35' E 135°04'1111.4
2014-Nov-26 01:33N 34°34' E 134°51'1110.9
2014-Nov-26 00:33N 34°42' E 134°41'4 0.2
2014-Nov-25 03:29N 34°45' E 134°41'14 7.1
2014-Nov-25 01:34N 34°35' E 134°51'1312.9
2014-Nov-25 00:33N 34°35' E 135°07'5 5.4
2014-Nov-24 23:33N 34°30' E 135°08'1413.9
2014-Nov-24 22:33N 34°18' E 134°60'1111.0
2014-Nov-24 21:33N 34°07' E 134°60'6 6.5
2014-Nov-24 20:33N 34°01' E 134°59'6 5.9
2014-Nov-24 19:33N 33°55' E 134°59'  

Dump ship's entire track history